createdAt,value
2022-08-09T00:02:08.384Z,23.20
2022-08-09T00:05:03.436Z,23.20
2022-08-09T00:07:45.285Z,23.10
2022-08-09T00:10:32.912Z,23.10
2022-08-09T00:13:41.008Z,23.10
2022-08-09T00:16:36.951Z,23.00
2022-08-09T00:19:18.507Z,22.90
2022-08-09T00:22:06.343Z,22.90
2022-08-09T00:24:55.267Z,22.90
2022-08-09T00:27:43.652Z,22.90
2022-08-09T00:30:33.485Z,23.00
2022-08-09T00:33:32.653Z,23.00
2022-08-09T00:36:11.520Z,22.90
2022-08-09T00:38:59.490Z,22.90
2022-08-09T00:44:19.801Z,22.90
2022-08-09T00:44:37.529Z,22.90
2022-08-09T00:47:25.257Z,22.90
2022-08-09T00:50:14.582Z,22.90
2022-08-09T00:53:01.152Z,22.90
2022-08-09T00:56:04.669Z,22.90
2022-08-09T00:58:38.929Z,22.80
2022-08-09T01:01:32.470Z,22.80
2022-08-09T01:04:25.437Z,22.80
2022-08-09T01:07:37.720Z,22.80
2022-08-09T01:10:29.018Z,22.80
2022-08-09T01:13:31.013Z,22.70
2022-08-09T01:16:20.260Z,22.70
2022-08-09T01:19:51.818Z,22.80
2022-08-09T01:23:00.188Z,22.70
2022-08-09T01:25:59.358Z,22.60
2022-08-09T01:28:49.517Z,22.60
2022-08-09T01:32:31.673Z,22.60
2022-08-09T01:34:30.935Z,22.50
2022-08-09T01:37:21.857Z,22.50
2022-08-09T01:40:12.570Z,22.50
2022-08-09T01:43:02.504Z,22.50
2022-08-09T01:45:50.846Z,22.50
2022-08-09T01:48:39.231Z,22.50
2022-08-09T01:51:32.332Z,22.40
2022-08-09T01:54:19.728Z,22.50
2022-08-09T01:57:10.116Z,22.40
2022-08-09T02:00:19.195Z,22.40
2022-08-09T02:02:51.860Z,22.40
2022-08-09T02:06:03.315Z,22.40
2022-08-09T02:08:39.063Z,22.40
2022-08-09T02:11:21.365Z,22.30
2022-08-09T02:14:15.140Z,22.30
2022-08-09T02:17:15.535Z,22.30
2022-08-09T02:19:49.821Z,22.20
2022-08-09T02:22:46.482Z,22.10
2022-08-09T02:25:42.794Z,22.10
2022-08-09T02:28:38.851Z,22.20
2022-08-09T02:31:36.153Z,22.20
2022-08-09T02:34:41.451Z,22.10
2022-08-09T02:37:21.540Z,22.10
2022-08-09T02:40:13.439Z,22.10
2022-08-09T02:43:03.573Z,22.10
2022-08-09T02:45:53.992Z,22.10
2022-08-09T02:48:46.184Z,22.10
2022-08-09T02:51:39.979Z,22.10
2022-08-09T02:54:26.494Z,22.00
2022-08-09T02:57:23.078Z,22.00
2022-08-09T03:00:21.407Z,22.00
2022-08-09T03:03:00.915Z,22.00
2022-08-09T03:05:51.676Z,21.90
2022-08-09T03:08:42.515Z,21.90
2022-08-09T03:12:09.653Z,21.80
2022-08-09T03:14:28.154Z,21.80
2022-08-09T03:17:16.531Z,21.70
2022-08-09T03:20:11.327Z,21.80
2022-08-09T03:22:54.612Z,21.70
2022-08-09T03:26:03.760Z,21.70
2022-08-09T03:28:34.865Z,21.70
2022-08-09T03:31:23.779Z,21.60
2022-08-09T03:34:14.130Z,21.60
2022-08-09T03:37:02.435Z,21.50
2022-08-09T03:39:55.340Z,21.50
2022-08-09T03:42:39.792Z,21.40
2022-08-09T03:46:03.029Z,21.40
2022-08-09T03:48:19.040Z,21.40
2022-08-09T03:51:54.110Z,21.40
2022-08-09T03:53:59.779Z,21.30
2022-08-09T03:56:47.682Z,21.30
2022-08-09T03:59:43.111Z,21.30
2022-08-09T04:02:28.731Z,21.30
2022-08-09T04:05:18.211Z,21.20
2022-08-09T04:08:05.522Z,21.20
2022-08-09T04:10:53.306Z,21.20
2022-08-09T04:13:44.829Z,21.10
2022-08-09T04:16:30.830Z,21.10
2022-08-09T04:19:30.369Z,21.10
2022-08-09T04:22:06.985Z,21.20
2022-08-09T04:24:55.818Z,21.10
2022-08-09T04:27:48.968Z,21.20
2022-08-09T04:30:32.368Z,21.20
2022-08-09T04:33:23.630Z,21.20
2022-08-09T04:36:09.239Z,21.30
2022-08-09T04:39:01.034Z,21.30
2022-08-09T04:41:48.331Z,21.40
2022-08-09T04:44:36.583Z,21.40
2022-08-09T04:47:25.688Z,21.40
2022-08-09T04:50:14.777Z,21.40
2022-08-09T04:53:05.527Z,21.40
2022-08-09T04:55:58.838Z,21.50
2022-08-09T04:58:43.188Z,21.50
2022-08-09T05:01:30.683Z,21.60
2022-08-09T05:04:19.623Z,21.60
2022-08-09T05:07:07.332Z,21.70
2022-08-09T05:09:56.291Z,21.80
2022-08-09T05:12:44.541Z,21.80
2022-08-09T05:15:39.315Z,21.90
2022-08-09T05:18:39.622Z,22.00
2022-08-09T05:21:20.795Z,22.00
2022-08-09T05:24:02.226Z,22.20
2022-08-09T05:26:48.827Z,22.20
2022-08-09T05:29:36.331Z,22.30
2022-08-09T05:32:24.241Z,22.40
2022-08-09T05:35:11.599Z,22.30
2022-08-09T05:37:58.846Z,22.40
2022-08-09T05:40:50.366Z,22.40
2022-08-09T05:43:35.352Z,22.50
2022-08-09T05:46:23.753Z,22.60
2022-08-09T05:49:25.086Z,22.60
2022-08-09T05:52:00.827Z,22.70
2022-08-09T05:54:49.125Z,22.70
2022-08-09T05:57:55.812Z,22.90
2022-08-09T06:00:32.869Z,23.00
2022-08-09T06:03:20.558Z,23.00
2022-08-09T06:06:08.557Z,23.20
2022-08-09T06:08:56.804Z,23.30
2022-08-09T06:11:57.666Z,23.30
2022-08-09T06:14:33.523Z,23.40
2022-08-09T06:17:21.059Z,23.40
2022-08-09T06:20:08.782Z,23.50
2022-08-09T06:22:56.306Z,23.60
2022-08-09T06:25:45.021Z,23.60
2022-08-09T06:28:33.750Z,23.70
2022-08-09T06:31:31.321Z,23.70
2022-08-09T06:34:09.841Z,23.80
2022-08-09T06:36:59.140Z,23.90
2022-08-09T06:39:58.144Z,23.90
2022-08-09T06:42:35.721Z,23.90
2022-08-09T06:46:04.799Z,23.70
2022-08-09T06:48:16.701Z,23.70
2022-08-09T06:51:04.494Z,23.70
2022-08-09T06:53:51.819Z,23.90
2022-08-09T06:56:40.377Z,23.90
2022-08-09T07:00:49.341Z,24.00
2022-08-09T07:02:18.384Z,24.10
2022-08-09T07:05:06.526Z,24.00
2022-08-09T07:07:59.592Z,24.10
2022-08-09T07:10:44.983Z,24.20
2022-08-09T07:13:45.112Z,24.20
2022-08-09T07:16:43.303Z,24.30
2022-08-09T07:19:15.630Z,24.20
2022-08-09T07:22:02.503Z,24.30
2022-08-09T07:24:50.009Z,24.30
2022-08-09T07:27:43.124Z,24.30
2022-08-09T07:30:32.857Z,24.30
2022-08-09T07:33:17.865Z,24.40
2022-08-09T07:36:05.595Z,24.50
2022-08-09T07:39:00.419Z,24.60
2022-08-09T07:41:43.740Z,24.70
2022-08-09T07:44:51.038Z,24.90
2022-08-09T07:47:39.525Z,25.10
2022-08-09T07:50:11.736Z,25.20
2022-08-09T07:53:02.639Z,25.40
2022-08-09T07:56:03.441Z,25.40
2022-08-09T07:58:36.972Z,25.60
2022-08-09T08:01:25.441Z,25.70
2022-08-09T08:04:13.384Z,25.60
2022-08-09T08:07:15.579Z,25.70
2022-08-09T08:10:08.159Z,25.70
2022-08-09T08:12:45.645Z,25.80
2022-08-09T08:15:37.729Z,25.80
2022-08-09T08:18:22.829Z,25.90
2022-08-09T08:21:10.191Z,25.90
2022-08-09T08:23:57.576Z,25.90
2022-08-09T08:26:56.141Z,26.10
2022-08-09T08:29:39.485Z,26.20
2022-08-09T08:32:29.457Z,26.00
2022-08-09T08:35:13.536Z,26.10
2022-08-09T08:38:09.389Z,26.20
2022-08-09T08:40:53.010Z,26.40
2022-08-09T08:43:40.296Z,26.10
2022-08-09T08:46:41.418Z,26.40
2022-08-09T08:49:33.488Z,26.40
2022-08-09T08:52:24.440Z,26.40
2022-08-09T08:55:03.987Z,26.60
2022-08-09T08:57:56.478Z,26.50
2022-08-09T09:00:42.811Z,26.60
2022-08-09T09:03:38.293Z,26.80
2022-08-09T09:06:26.709Z,27.00
2022-08-09T09:09:21.224Z,27.20
2022-08-09T09:12:08.943Z,27.20
2022-08-09T09:14:54.644Z,27.20
2022-08-09T09:17:49.501Z,27.40
2022-08-09T09:20:36.017Z,27.50
2022-08-09T09:23:49.604Z,27.70
2022-08-09T09:26:35.997Z,27.80
2022-08-09T09:30:05.315Z,28.00
2022-08-09T09:32:34.744Z,28.00
2022-08-09T09:35:17.792Z,27.80
2022-08-09T09:38:05.113Z,27.90
2022-08-09T09:40:52.248Z,28.20
2022-08-09T09:43:41.741Z,28.40
2022-08-09T09:46:42.934Z,28.70
2022-08-09T09:49:56.304Z,29.00
2022-08-09T09:52:16.712Z,29.10
2022-08-09T09:55:23.734Z,28.80
2022-08-09T09:58:16.444Z,28.70
2022-08-09T10:00:59.107Z,29.00
2022-08-09T10:03:57.992Z,28.90
2022-08-09T10:06:47.104Z,28.90
2022-08-09T10:09:54.620Z,29.50
2022-08-09T10:12:51.913Z,29.80
2022-08-09T10:16:08.743Z,30.10
2022-08-09T10:18:22.154Z,30.30
2022-08-09T10:21:11.828Z,30.60
2022-08-09T10:24:04.808Z,30.80
2022-08-09T10:26:54.072Z,31.30
2022-08-09T10:30:17.209Z,31.10
2022-08-09T10:32:46.117Z,31.20
2022-08-09T10:35:20.172Z,31.80
2022-08-09T10:38:33.770Z,32.10
2022-08-09T10:40:57.011Z,32.30
2022-08-09T10:43:59.907Z,32.70
2022-08-09T10:47:04.042Z,32.30
2022-08-09T10:50:02.270Z,31.60
2022-08-09T10:53:10.510Z,31.80
2022-08-09T10:56:25.507Z,31.90
2022-08-09T10:59:30.996Z,31.80
2022-08-09T11:03:11.363Z,32.00
2022-08-09T11:05:25.407Z,31.80
2022-08-09T11:08:43.684Z,32.00
2022-08-09T11:11:55.881Z,32.00
2022-08-09T11:14:47.266Z,31.70
2022-08-09T11:17:41.809Z,32.00
2022-08-09T11:20:41.444Z,32.30
2022-08-09T11:23:30.476Z,32.60
2022-08-09T11:26:39.783Z,32.30
2022-08-09T11:30:06.029Z,32.50
2022-08-09T11:32:57.363Z,33.10
2022-08-09T11:36:01.039Z,33.00
2022-08-09T11:39:03.010Z,32.90
2022-08-09T11:41:52.792Z,32.80
2022-08-09T11:44:48.202Z,33.00
2022-08-09T11:47:50.323Z,33.70
2022-08-09T11:51:19.711Z,33.50
2022-08-09T11:53:58.080Z,33.40
2022-08-09T11:56:48.013Z,33.20
2022-08-09T11:59:30.394Z,33.30
2022-08-09T12:02:37.577Z,33.60
2022-08-09T12:05:07.132Z,33.50
2022-08-09T12:07:56.177Z,33.10
2022-08-09T12:10:48.540Z,32.90
2022-08-09T12:14:09.720Z,32.90
2022-08-09T12:16:38.160Z,33.30
2022-08-09T12:19:24.829Z,33.80
2022-08-09T12:22:13.781Z,33.30
2022-08-09T12:25:15.095Z,33.10
2022-08-09T12:29:00.101Z,32.70
2022-08-09T12:31:31.188Z,32.50
2022-08-09T12:34:10.811Z,33.30
2022-08-09T12:37:21.427Z,34.00
2022-08-09T12:40:03.402Z,34.30
2022-08-09T12:42:52.905Z,34.20
2022-08-09T12:45:40.579Z,33.50
2022-08-09T12:48:33.435Z,34.00
2022-08-09T12:51:52.691Z,33.70
2022-08-09T12:54:09.881Z,33.50
2022-08-09T12:56:57.196Z,33.20
2022-08-09T13:00:02.960Z,33.10
2022-08-09T13:02:54.163Z,33.10
2022-08-09T13:05:52.339Z,33.30
2022-08-09T13:08:40.949Z,33.50
2022-08-09T13:11:31.180Z,33.20
2022-08-09T13:14:40.854Z,33.20
2022-08-09T13:17:33.637Z,33.00
2022-08-09T13:20:16.287Z,33.30
2022-08-09T13:23:01.684Z,33.40
2022-08-09T13:25:52.915Z,33.80
2022-08-09T13:28:36.793Z,34.30
2022-08-09T13:32:19.085Z,34.00
2022-08-09T13:34:14.964Z,34.10
2022-08-09T13:37:05.920Z,34.20
2022-08-09T13:41:51.049Z,34.20
2022-08-09T13:42:44.333Z,34.60
2022-08-09T13:46:42.172Z,34.90
2022-08-09T13:48:21.262Z,34.40
2022-08-09T13:51:09.129Z,34.50
2022-08-09T13:53:56.688Z,34.70
2022-08-09T13:56:46.994Z,35.10
2022-08-09T13:59:41.555Z,34.60
2022-08-09T14:02:26.009Z,34.70
2022-08-09T14:05:13.468Z,34.50
2022-08-09T14:08:06.093Z,34.10
2022-08-09T14:10:53.807Z,33.60
2022-08-09T14:14:22.228Z,33.80
2022-08-09T14:16:30.182Z,33.60
2022-08-09T14:19:20.418Z,33.20
2022-08-09T14:22:09.061Z,33.40
2022-08-09T14:24:56.374Z,33.60
2022-08-09T14:27:56.982Z,33.60
2022-08-09T14:30:37.188Z,33.30
2022-08-09T14:33:21.544Z,33.40
2022-08-09T14:36:19.608Z,33.70
2022-08-09T14:38:58.366Z,34.10
2022-08-09T14:41:45.769Z,34.50
2022-08-09T14:44:48.930Z,34.60
2022-08-09T14:47:42.875Z,35.00
2022-08-09T14:50:12.785Z,35.30
2022-08-09T14:53:03.560Z,34.60
2022-08-09T14:55:52.630Z,34.20
2022-08-09T14:58:43.745Z,34.00
2022-08-09T15:01:30.117Z,33.90
2022-08-09T15:04:17.786Z,33.90
2022-08-09T15:07:05.377Z,34.10
2022-08-09T15:10:07.568Z,33.90
2022-08-09T15:12:44.863Z,33.70
2022-08-09T15:15:34.339Z,33.90
2022-08-09T15:18:22.364Z,34.00
2022-08-09T15:21:56.277Z,34.10
2022-08-09T15:24:09.238Z,34.30
2022-08-09T15:26:47.454Z,34.70
2022-08-09T15:30:48.236Z,34.90
2022-08-09T15:32:39.058Z,35.30
2022-08-09T15:35:40.457Z,35.60
2022-08-09T15:38:10.959Z,35.50
2022-08-09T15:40:54.455Z,34.90
2022-08-09T15:43:41.734Z,34.60
2022-08-09T15:46:33.098Z,34.10
2022-08-09T15:49:23.358Z,34.50
2022-08-09T15:52:09.210Z,35.00
2022-08-09T15:54:57.764Z,35.30
2022-08-09T15:57:51.542Z,35.60
2022-08-09T16:00:37.019Z,35.30
2022-08-09T16:03:29.665Z,35.50
2022-08-09T16:06:29.422Z,35.00
2022-08-09T16:09:05.062Z,34.60
2022-08-09T16:11:57.313Z,34.50
2022-08-09T16:14:41.889Z,34.50
2022-08-09T16:17:30.009Z,34.50
2022-08-09T16:20:18.974Z,34.60
2022-08-09T16:23:08.193Z,34.70
2022-08-09T16:26:01.075Z,34.80
2022-08-09T16:28:45.952Z,34.60
2022-08-09T16:31:38.329Z,34.90
2022-08-09T16:34:23.664Z,34.90
2022-08-09T16:37:11.866Z,34.90
2022-08-09T16:40:05.511Z,34.80
2022-08-09T16:42:48.389Z,34.90
2022-08-09T16:45:37.197Z,35.10
2022-08-09T16:48:40.995Z,34.90
2022-08-09T16:51:16.148Z,34.10
2022-08-09T16:54:26.000Z,33.50
2022-08-09T16:56:52.109Z,33.00
2022-08-09T16:59:43.898Z,32.70
2022-08-09T17:02:30.574Z,32.30
2022-08-09T17:05:19.923Z,32.00
2022-08-09T17:08:42.702Z,32.00
2022-08-09T17:10:56.327Z,31.90
2022-08-09T17:13:45.004Z,31.80
2022-08-09T17:16:32.303Z,31.80
2022-08-09T17:19:21.346Z,31.80
2022-08-09T17:22:08.691Z,31.80
2022-08-09T17:25:02.803Z,31.60
2022-08-09T17:27:49.254Z,31.50
2022-08-09T17:30:35.038Z,31.40
2022-08-09T17:33:23.257Z,31.30
2022-08-09T17:36:15.758Z,31.20
2022-08-09T17:38:59.961Z,31.20
2022-08-09T17:41:47.305Z,31.10
2022-08-09T17:44:43.656Z,31.10
2022-08-09T17:47:26.933Z,31.00
2022-08-09T17:50:17.088Z,31.00
2022-08-09T17:53:10.431Z,30.90
2022-08-09T17:56:02.025Z,30.80
2022-08-09T17:58:46.129Z,30.60
2022-08-09T18:01:41.434Z,30.50
2022-08-09T18:04:23.726Z,30.30
2022-08-09T18:07:11.165Z,30.20
2022-08-09T18:10:04.990Z,30.20
2022-08-09T18:13:43.458Z,30.20
2022-08-09T18:16:05.286Z,30.10
2022-08-09T18:18:32.816Z,30.00
2022-08-09T18:21:21.542Z,29.90
2022-08-09T18:24:12.347Z,29.70
2022-08-09T18:26:53.708Z,29.60
2022-08-09T18:30:38.838Z,29.50
2022-08-09T18:32:32.005Z,29.40
2022-08-09T18:35:19.172Z,29.40
2022-08-09T18:38:08.351Z,29.20
2022-08-09T18:40:56.420Z,29.10
2022-08-09T18:43:53.201Z,29.00
2022-08-09T18:46:46.218Z,28.90
2022-08-09T18:49:23.623Z,28.80
2022-08-09T18:52:11.834Z,28.80
2022-08-09T18:54:59.283Z,28.60
2022-08-09T18:57:46.724Z,28.50
2022-08-09T19:00:33.973Z,28.40
2022-08-09T19:03:23.390Z,28.40
2022-08-09T19:06:14.577Z,28.30
2022-08-09T19:09:02.609Z,28.30
2022-08-09T19:11:49.025Z,28.20
2022-08-09T19:14:37.114Z,28.20
2022-08-09T19:17:24.515Z,28.10
2022-08-09T19:20:13.548Z,28.00
2022-08-09T19:23:00.993Z,27.90
2022-08-09T19:26:01.835Z,27.80
2022-08-09T19:28:40.040Z,27.70
2022-08-09T19:31:28.714Z,27.60
2022-08-09T19:34:22.043Z,27.50
2022-08-09T19:37:06.805Z,27.50
2022-08-09T19:40:04.430Z,27.40
2022-08-09T19:42:44.747Z,27.40
2022-08-09T19:45:39.137Z,27.30
2022-08-09T19:49:00.397Z,27.20
2022-08-09T19:51:11.339Z,27.10
2022-08-09T19:53:59.365Z,27.00
2022-08-09T19:56:47.193Z,27.00
2022-08-09T19:59:57.452Z,26.90
2022-08-09T20:04:12.329Z,26.90
2022-08-09T20:05:14.921Z,26.80
2022-08-09T20:08:06.014Z,26.80
2022-08-09T20:10:51.597Z,26.70
2022-08-09T20:13:40.298Z,26.70
2022-08-09T20:16:38.495Z,26.60
2022-08-09T20:19:46.365Z,26.60
2022-08-09T20:22:09.934Z,26.50
2022-08-09T20:24:55.354Z,26.50
2022-08-09T20:27:43.172Z,26.50
2022-08-09T20:30:30.608Z,26.50
2022-08-09T20:33:18.329Z,26.40
2022-08-09T20:36:06.514Z,26.40
2022-08-09T20:39:28.486Z,26.30
2022-08-09T20:41:42.443Z,26.30
2022-08-09T20:44:33.259Z,26.30
2022-08-09T20:47:45.433Z,26.30
2022-08-09T20:50:09.889Z,26.30
2022-08-09T20:52:58.891Z,26.20
2022-08-09T20:56:00.678Z,26.20
2022-08-09T20:58:35.896Z,26.20
2022-08-09T21:01:35.484Z,26.10
2022-08-09T21:05:55.152Z,26.00
2022-08-09T21:07:12.294Z,26.00
2022-08-09T21:09:56.901Z,26.00
2022-08-09T21:12:39.732Z,26.00
2022-08-09T21:15:34.174Z,25.90
2022-08-09T21:18:24.370Z,25.90
2022-08-09T21:21:17.008Z,25.80
2022-08-09T21:23:59.402Z,25.80
2022-08-09T21:26:43.050Z,25.80
2022-08-09T21:29:30.518Z,25.80
2022-08-09T21:32:19.629Z,25.70
2022-08-09T21:35:06.899Z,25.70
2022-08-09T21:37:59.981Z,25.60
2022-08-09T21:40:44.159Z,25.60
2022-08-09T21:43:56.641Z,25.60
2022-08-09T21:46:23.787Z,25.50
2022-08-09T21:49:12.717Z,25.50
2022-08-09T21:52:00.253Z,25.50
2022-08-09T21:54:59.310Z,25.40
2022-08-09T21:57:59.494Z,25.40
2022-08-09T22:00:32.693Z,25.40
2022-08-09T22:03:25.427Z,25.40
2022-08-09T22:06:09.437Z,25.40
2022-08-09T22:08:58.100Z,25.30
2022-08-09T22:12:05.921Z,25.30
2022-08-09T22:14:34.588Z,25.30
2022-08-09T22:17:21.869Z,25.20
2022-08-09T22:20:09.819Z,25.20
2022-08-09T22:22:58.556Z,25.10
2022-08-09T22:26:06.056Z,25.00
2022-08-09T22:28:34.904Z,25.00
2022-08-09T22:31:22.607Z,25.00
2022-08-09T22:34:14.780Z,25.00
2022-08-09T22:37:00.806Z,25.00
2022-08-09T22:39:58.368Z,25.00
2022-08-09T22:42:38.508Z,24.90
2022-08-09T22:48:10.860Z,24.90
2022-08-09T22:48:36.038Z,24.90
2022-08-09T22:51:10.695Z,24.80
2022-08-09T22:54:02.155Z,24.80
2022-08-09T22:56:42.299Z,24.70
2022-08-09T22:59:58.021Z,24.70
2022-08-09T23:02:20.297Z,24.70
2022-08-09T23:05:07.566Z,24.70
2022-08-09T23:08:21.984Z,24.70
2022-08-09T23:11:02.089Z,24.60
2022-08-09T23:13:52.434Z,24.60
2022-08-09T23:16:39.796Z,24.60
2022-08-09T23:19:27.048Z,24.50
2022-08-09T23:22:14.333Z,24.50
2022-08-09T23:25:02.638Z,24.40
2022-08-09T23:28:14.383Z,24.50
2022-08-09T23:30:39.135Z,24.50
2022-08-09T23:33:26.848Z,24.50
2022-08-09T23:36:14.511Z,24.40
2022-08-09T23:39:02.584Z,24.40
2022-08-09T23:41:49.946Z,24.40
2022-08-09T23:44:37.450Z,24.30
2022-08-09T23:47:25.137Z,24.30
2022-08-09T23:50:12.682Z,24.30
2022-08-09T23:52:59.979Z,24.30
2022-08-09T23:55:49.765Z,24.20
2022-08-09T23:58:37.471Z,24.20
